createdAt,value
2023-01-13T00:01:21.074Z,38.72
2023-01-13T00:04:29.728Z,37.10
2023-01-13T00:07:38.579Z,41.05
2023-01-13T00:10:53.676Z,38.07
2023-01-13T00:14:08.724Z,37.53
2023-01-13T00:17:16.730Z,40.90
2023-01-13T00:20:31.714Z,44.25
2023-01-13T00:23:41.691Z,40.45
2023-01-13T00:26:56.714Z,40.57
2023-01-13T00:30:05.697Z,40.30
2023-01-13T00:33:20.706Z,38.83
2023-01-13T00:36:22.793Z,39.85
2023-01-13T00:39:44.712Z,39.13
2023-01-13T00:42:53.322Z,39.60
2023-01-13T00:46:08.760Z,42.37
2023-01-13T00:49:16.712Z,39.33
2023-01-13T00:52:25.675Z,34.88
2023-01-13T00:55:36.754Z,43.70
2023-01-13T00:58:46.877Z,37.00
2023-01-13T01:01:54.818Z,31.90
2023-01-13T01:05:03.468Z,36.38
2023-01-13T01:08:12.721Z,33.97
2023-01-13T01:11:30.742Z,30.12
2023-01-13T01:14:32.710Z,32.63
2023-01-13T01:17:47.748Z,34.53
2023-01-13T01:20:51.983Z,30.65
2023-01-13T01:24:08.736Z,28.40
2023-01-13T01:27:10.557Z,28.45
2023-01-13T01:30:25.731Z,28.37
2023-01-13T01:33:28.187Z,28.40
2023-01-13T01:36:42.747Z,27.77
2023-01-13T01:39:57.751Z,26.80
2023-01-13T01:43:19.499Z,34.10
2023-01-13T01:46:27.801Z,28.27
2023-01-13T01:49:37.921Z,32.23
2023-01-13T01:52:50.784Z,26.30
2023-01-13T01:56:00.405Z,30.60
2023-01-13T01:59:09.741Z,24.75
2023-01-13T02:02:18.655Z,31.20
2023-01-13T02:05:29.750Z,24.47
2023-01-13T02:08:40.923Z,28.92
2023-01-13T02:11:49.747Z,25.35
2023-01-13T02:15:19.762Z,33.97
2023-01-13T02:18:41.561Z,28.77
2023-01-13T02:22:23.786Z,27.83
2023-01-13T02:26:00.745Z,26.33
2023-01-13T02:29:23.983Z,25.15
2023-01-13T02:32:51.772Z,29.55
2023-01-13T02:36:10.264Z,25.30
2023-01-13T02:39:25.804Z,22.83
2023-01-13T02:42:45.519Z,22.87
2023-01-13T02:46:13.763Z,27.27
2023-01-13T02:49:31.196Z,24.85
2023-01-13T02:52:45.781Z,24.20
2023-01-13T02:56:03.754Z,23.90
2023-01-13T02:59:06.775Z,25.25
2023-01-13T03:02:25.831Z,27.08
2023-01-13T03:05:31.503Z,27.23
2023-01-13T03:08:59.828Z,27.70
2023-01-13T03:12:22.769Z,25.53
2023-01-13T03:15:43.456Z,23.62
2023-01-13T03:19:07.773Z,22.23
2023-01-13T03:22:54.824Z,20.42
2023-01-13T03:26:15.262Z,26.43
2023-01-13T03:29:28.808Z,21.03
2023-01-13T03:32:49.811Z,19.10
2023-01-13T03:36:04.792Z,19.92
2023-01-13T03:39:34.837Z,21.65
2023-01-13T03:42:52.780Z,23.53
2023-01-13T03:46:09.005Z,22.73
2023-01-13T03:49:22.821Z,21.10
2023-01-13T03:52:36.322Z,20.52
2023-01-13T03:55:50.886Z,23.87
2023-01-13T03:59:09.819Z,21.73
2023-01-13T04:02:19.650Z,22.47
2023-01-13T04:05:35.808Z,20.05
2023-01-13T04:08:54.546Z,20.65
2023-01-13T04:12:12.797Z,26.35
2023-01-13T04:15:30.857Z,19.83
2023-01-13T04:18:36.437Z,18.00
2023-01-13T04:21:50.844Z,22.30
2023-01-13T04:24:52.729Z,19.55
2023-01-13T04:28:07.913Z,19.70
2023-01-13T04:31:10.232Z,23.20
2023-01-13T04:34:26.381Z,25.77
2023-01-13T04:37:36.804Z,20.17
2023-01-13T04:40:58.834Z,19.92
2023-01-13T04:44:06.823Z,22.52
2023-01-13T04:47:21.874Z,20.10
2023-01-13T04:50:31.414Z,23.57
2023-01-13T04:53:39.888Z,23.15
2023-01-13T04:56:48.511Z,23.50
2023-01-13T05:00:02.848Z,22.50
2023-01-13T05:03:11.845Z,22.30
2023-01-13T05:06:20.577Z,22.77
2023-01-13T05:09:29.867Z,25.37
2023-01-13T05:12:38.434Z,24.87
2023-01-13T05:15:47.893Z,21.10
2023-01-13T05:18:56.733Z,22.70
2023-01-13T05:22:05.856Z,21.00
2023-01-13T05:25:20.853Z,26.10
2023-01-13T05:28:28.861Z,24.30
2023-01-13T05:31:43.907Z,21.02
2023-01-13T05:34:45.757Z,24.47
2023-01-13T05:38:02.951Z,24.27
2023-01-13T05:41:17.890Z,22.98
2023-01-13T05:44:32.864Z,23.98
2023-01-13T05:47:40.856Z,23.80
2023-01-13T05:50:49.875Z,22.37
2023-01-13T05:53:58.857Z,22.03
2023-01-13T05:57:13.891Z,21.92
2023-01-13T06:00:16.667Z,24.30
2023-01-13T06:03:32.887Z,26.23
2023-01-13T06:06:34.663Z,24.73
2023-01-13T06:09:49.885Z,26.23
2023-01-13T06:12:52.068Z,19.90
2023-01-13T06:16:06.935Z,22.95
2023-01-13T06:19:09.139Z,24.65
2023-01-13T06:22:29.920Z,24.70
2023-01-13T06:25:50.898Z,20.23
2023-01-13T06:29:05.896Z,19.80
2023-01-13T06:32:22.866Z,18.52
2023-01-13T06:35:34.782Z,21.48
2023-01-13T06:38:55.917Z,21.77
2023-01-13T06:42:04.628Z,20.03
2023-01-13T06:45:18.884Z,18.90
2023-01-13T06:48:31.194Z,18.60
2023-01-13T06:51:39.934Z,21.02
2023-01-13T06:54:54.892Z,23.00
2023-01-13T06:58:00.719Z,18.87
2023-01-13T07:01:16.116Z,19.37
2023-01-13T07:04:24.916Z,22.30
2023-01-13T07:07:33.654Z,19.27
2023-01-13T07:10:43.912Z,23.77
2023-01-13T07:13:59.041Z,20.33
2023-01-13T07:17:00.908Z,21.17
2023-01-13T07:20:16.913Z,27.00
2023-01-13T07:23:18.869Z,24.63
2023-01-13T07:26:33.967Z,21.83
2023-01-13T07:29:36.139Z,22.80
2023-01-13T07:32:50.919Z,22.37
2023-01-13T07:36:01.697Z,26.70
2023-01-13T07:39:16.929Z,21.27
2023-01-13T07:42:32.959Z,25.03
2023-01-13T07:45:48.007Z,23.43
2023-01-13T07:48:57.080Z,19.60
2023-01-13T07:52:11.918Z,25.23
2023-01-13T07:55:15.873Z,24.77
2023-01-13T07:58:32.014Z,23.10
2023-01-13T08:01:41.125Z,24.90
2023-01-13T08:04:51.092Z,21.23
2023-01-13T08:08:08.719Z,20.25
2023-01-13T08:11:18.135Z,18.50
2023-01-13T08:14:40.035Z,20.33
2023-01-13T08:17:42.526Z,17.27
2023-01-13T08:21:02.359Z,21.70
2023-01-13T08:24:13.587Z,25.25
2023-01-13T08:27:28.027Z,24.63
2023-01-13T08:30:37.986Z,15.30
2023-01-13T08:33:54.043Z,16.98
2023-01-13T08:36:55.903Z,17.40
2023-01-13T08:40:12.026Z,16.25
2023-01-13T08:43:32.047Z,16.02
2023-01-13T08:46:39.998Z,15.93
2023-01-13T08:49:49.220Z,15.88
2023-01-13T08:52:57.963Z,17.53
2023-01-13T08:56:08.104Z,14.15
2023-01-13T08:59:26.961Z,13.77
2023-01-13T09:02:37.082Z,13.15
2023-01-13T09:05:46.032Z,12.90
2023-01-13T09:08:54.752Z,17.13
2023-01-13T09:12:02.999Z,15.25
2023-01-13T09:15:18.970Z,17.42
2023-01-13T09:18:21.004Z,15.05
2023-01-13T09:21:35.999Z,17.90
2023-01-13T09:24:37.989Z,18.07
2023-01-13T09:27:52.979Z,20.05
2023-01-13T09:30:55.308Z,17.62
2023-01-13T09:34:12.018Z,17.52
2023-01-13T09:37:14.099Z,20.12
2023-01-13T09:40:39.838Z,15.57
2023-01-13T09:43:54.990Z,16.27
2023-01-13T09:47:16.042Z,18.98
2023-01-13T09:50:35.031Z,20.85
2023-01-13T09:53:57.032Z,19.83
2023-01-13T09:57:06.069Z,21.60
2023-01-13T10:00:25.108Z,15.98
2023-01-13T10:03:37.046Z,23.12
2023-01-13T10:06:52.150Z,23.48
2023-01-13T10:10:04.022Z,20.83
2023-01-13T10:13:28.011Z,36.63
2023-01-13T10:16:40.024Z,20.50
2023-01-13T10:20:03.049Z,21.62
2023-01-13T10:23:33.405Z,23.33
2023-01-13T10:27:09.965Z,23.65
2023-01-13T10:30:31.987Z,36.90
2023-01-13T10:33:47.284Z,22.83
2023-01-13T10:37:08.021Z,19.20
2023-01-13T10:40:23.335Z,20.73
2023-01-13T10:43:39.015Z,51.10
2023-01-13T10:47:01.012Z,21.03
2023-01-13T10:50:35.085Z,21.80
2023-01-13T10:53:56.149Z,22.42
2023-01-13T10:57:17.887Z,26.62
2023-01-13T11:00:37.972Z,19.15
2023-01-13T11:03:46.738Z,27.93
2023-01-13T11:06:54.997Z,23.92
2023-01-13T11:10:32.023Z,23.67
2023-01-13T11:13:39.859Z,24.80
2023-01-13T11:17:00.032Z,24.30
2023-01-13T11:20:24.059Z,22.90
2023-01-13T11:23:46.073Z,25.17
2023-01-13T11:27:08.138Z,25.25
2023-01-13T11:30:22.925Z,21.90
2023-01-13T11:33:48.036Z,29.58
2023-01-13T11:37:00.348Z,27.03
2023-01-13T11:40:26.035Z,28.10
2023-01-13T11:43:49.089Z,25.60
2023-01-13T11:46:52.921Z,29.55
2023-01-13T11:50:09.040Z,27.23
2023-01-13T11:53:39.052Z,26.27
2023-01-13T11:57:24.100Z,25.42
2023-01-13T12:00:43.026Z,43.65
2023-01-13T12:04:11.562Z,30.55
2023-01-13T12:07:28.077Z,31.92
2023-01-13T12:10:46.449Z,29.70
2023-01-13T12:14:23.102Z,28.38
2023-01-13T12:18:05.032Z,30.75
2023-01-13T12:21:19.924Z,27.35
2023-01-13T12:24:47.070Z,31.08
2023-01-13T12:28:07.118Z,25.70
2023-01-13T12:31:18.183Z,32.33
2023-01-13T12:34:50.053Z,33.92
2023-01-13T12:38:14.060Z,28.58
2023-01-13T12:41:44.922Z,32.65
2023-01-13T12:48:52.063Z,30.40
2023-01-13T12:52:15.354Z,30.55
2023-01-13T12:55:34.069Z,34.00
2023-01-13T12:58:36.213Z,29.60
2023-01-13T13:01:54.169Z,33.20
2023-01-13T13:04:59.501Z,29.60
2023-01-13T13:08:30.059Z,36.20
2023-01-13T13:11:46.097Z,31.00
2023-01-13T13:15:03.114Z,30.12
2023-01-13T13:18:29.100Z,36.50
2023-01-13T13:22:04.129Z,30.55
2023-01-13T13:25:21.557Z,31.37
2023-01-13T13:28:31.059Z,30.12
2023-01-13T13:31:59.856Z,27.40
2023-01-13T13:35:29.084Z,33.47
2023-01-13T13:39:14.178Z,30.12
2023-01-13T13:42:27.069Z,27.77
2023-01-13T13:45:42.130Z,31.05
2023-01-13T13:48:59.144Z,26.83
2023-01-13T13:52:33.682Z,33.67
2023-01-13T13:55:43.076Z,26.73
2023-01-13T13:58:59.106Z,25.27
2023-01-13T14:02:10.278Z,32.95
2023-01-13T14:05:30.159Z,29.02
2023-01-13T14:08:36.862Z,26.87
2023-01-13T14:12:06.051Z,24.52
2023-01-13T14:15:24.456Z,30.70
2023-01-13T14:18:53.056Z,26.85
2023-01-13T14:22:02.378Z,27.35
2023-01-13T14:25:34.070Z,24.00
2023-01-13T14:28:45.070Z,26.23
2023-01-13T14:31:54.669Z,23.20
2023-01-13T14:35:03.058Z,28.55
2023-01-13T14:38:23.056Z,30.73
2023-01-13T14:41:54.030Z,24.37
2023-01-13T14:45:03.399Z,29.05
2023-01-13T14:48:16.314Z,29.52
2023-01-13T14:51:27.964Z,23.25
2023-01-13T14:54:53.037Z,27.87
2023-01-13T14:58:21.572Z,24.33
2023-01-13T15:01:40.241Z,29.90
2023-01-13T15:04:49.098Z,29.42
2023-01-13T15:08:08.077Z,30.73
2023-01-13T15:11:29.094Z,29.77
2023-01-13T15:14:34.078Z,34.07
2023-01-13T15:17:49.093Z,35.08
2023-01-13T15:20:51.446Z,29.85
2023-01-13T15:24:06.071Z,28.08
2023-01-13T15:27:17.655Z,34.33
2023-01-13T15:30:34.036Z,33.90
2023-01-13T15:33:35.823Z,30.73
2023-01-13T15:36:51.115Z,36.08
2023-01-13T15:39:59.092Z,30.35
2023-01-13T15:43:18.036Z,37.70
2023-01-13T15:46:27.079Z,28.63
2023-01-13T15:49:51.131Z,30.50
2023-01-13T15:52:52.971Z,31.37
2023-01-13T15:56:09.065Z,33.88
2023-01-13T15:59:25.064Z,35.53
2023-01-13T16:02:40.158Z,35.40
2023-01-13T16:05:42.740Z,28.50
2023-01-13T16:08:57.174Z,31.35
2023-01-13T16:12:06.067Z,30.10
2023-01-13T16:15:23.116Z,27.05
2023-01-13T16:18:24.953Z,29.90
2023-01-13T16:21:40.132Z,32.65
2023-01-13T16:24:42.368Z,30.50
2023-01-13T16:27:59.141Z,31.23
2023-01-13T16:31:15.983Z,30.92
2023-01-13T16:34:31.192Z,30.80
2023-01-13T16:37:33.057Z,31.45
2023-01-13T16:40:51.155Z,28.77
2023-01-13T16:44:00.404Z,32.38
2023-01-13T16:47:21.172Z,29.33
2023-01-13T16:50:41.657Z,31.33
2023-01-13T16:53:58.208Z,27.55
2023-01-13T16:57:13.183Z,32.05
2023-01-13T17:00:15.918Z,30.05
2023-01-13T17:03:30.210Z,30.40
2023-01-13T17:06:50.177Z,30.10
2023-01-13T17:10:05.279Z,33.63
2023-01-13T17:13:15.926Z,30.52
2023-01-13T17:16:31.222Z,29.55
2023-01-13T17:19:39.154Z,27.60
2023-01-13T17:22:57.746Z,30.10
2023-01-13T17:26:06.183Z,28.90
2023-01-13T17:29:24.207Z,30.73
2023-01-13T17:32:33.197Z,34.40
2023-01-13T17:35:48.177Z,30.45
2023-01-13T17:38:50.645Z,34.40
2023-01-13T17:42:12.295Z,32.40
2023-01-13T17:45:27.278Z,24.58
2023-01-13T17:48:36.387Z,26.98
2023-01-13T17:51:45.197Z,29.20
2023-01-13T17:55:00.223Z,27.63
2023-01-13T17:58:02.204Z,27.42
2023-01-13T18:01:22.305Z,29.27
2023-01-13T18:04:25.884Z,30.08
2023-01-13T18:07:40.230Z,29.20
2023-01-13T18:10:49.213Z,28.70
2023-01-13T18:14:05.217Z,25.88
2023-01-13T18:17:07.304Z,28.75
2023-01-13T18:20:25.213Z,27.33
2023-01-13T18:23:27.035Z,26.10
2023-01-13T18:26:43.204Z,26.13
2023-01-13T18:29:47.087Z,27.60
2023-01-13T18:33:02.249Z,23.15
2023-01-13T18:36:08.214Z,28.70
2023-01-13T18:39:23.268Z,30.40
2023-01-13T18:42:38.200Z,29.00
2023-01-13T18:45:50.655Z,29.05
2023-01-13T18:48:59.239Z,30.83
2023-01-13T18:52:08.092Z,30.67
2023-01-13T18:55:16.216Z,26.37
2023-01-13T18:58:25.068Z,28.90
2023-01-13T19:01:34.398Z,32.60
2023-01-13T19:04:46.081Z,28.83
2023-01-13T19:07:54.235Z,27.10
2023-01-13T19:11:13.265Z,25.70
2023-01-13T19:14:22.227Z,29.93
2023-01-13T19:17:40.326Z,27.58
2023-01-13T19:20:46.031Z,26.92
2023-01-13T19:24:03.278Z,29.63
2023-01-13T19:27:05.759Z,30.23
2023-01-13T19:30:21.239Z,27.73
2023-01-13T19:33:32.653Z,27.20
2023-01-13T19:36:41.255Z,28.50
2023-01-13T19:39:57.231Z,30.58
2023-01-13T19:43:06.501Z,32.53
2023-01-13T19:46:21.314Z,34.37
2023-01-13T19:49:23.705Z,33.83
2023-01-13T19:52:39.261Z,29.05
2023-01-13T19:55:46.346Z,36.10
2023-01-13T19:59:01.295Z,32.15
2023-01-13T20:02:16.171Z,29.93
2023-01-13T20:05:27.311Z,30.08
2023-01-13T20:08:36.564Z,32.55
2023-01-13T20:11:45.269Z,42.45
2023-01-13T20:15:00.411Z,33.20
2023-01-13T20:18:09.248Z,34.43
2023-01-13T20:21:20.397Z,34.55
2023-01-13T20:24:29.281Z,35.17
2023-01-13T20:27:37.903Z,33.95
2023-01-13T20:30:47.296Z,34.90
2023-01-13T20:33:56.057Z,36.73
2023-01-13T20:37:04.263Z,31.12
2023-01-13T20:40:15.401Z,33.97
2023-01-13T20:43:24.281Z,35.85
2023-01-13T20:46:39.292Z,32.92
2023-01-13T20:49:41.328Z,36.83
2023-01-13T20:52:56.287Z,40.53
2023-01-13T20:55:58.263Z,32.60
2023-01-13T20:59:14.311Z,33.60
2023-01-13T21:02:23.189Z,36.38
2023-01-13T21:05:31.292Z,36.37
2023-01-13T21:08:46.313Z,31.52
2023-01-13T21:11:50.056Z,33.40
2023-01-13T21:15:04.332Z,37.70
2023-01-13T21:18:06.271Z,37.25
2023-01-13T21:21:21.308Z,36.57
2023-01-13T21:24:23.923Z,37.75
2023-01-13T21:27:39.340Z,37.85
2023-01-13T21:30:49.307Z,37.42
2023-01-13T21:33:58.431Z,37.55
2023-01-13T21:37:06.320Z,37.67
2023-01-13T21:40:22.382Z,42.00
2023-01-13T21:43:37.299Z,38.30
2023-01-13T21:46:52.329Z,42.03
2023-01-13T21:49:54.295Z,39.22
2023-01-13T21:53:09.311Z,41.07
2023-01-13T21:56:11.220Z,39.13
2023-01-13T21:59:26.343Z,43.47
2023-01-13T22:02:28.359Z,34.13
2023-01-13T22:05:44.295Z,38.88
2023-01-13T22:08:46.364Z,33.50
2023-01-13T22:12:01.310Z,41.83
2023-01-13T22:15:10.312Z,41.30
2023-01-13T22:18:25.310Z,38.33
2023-01-13T22:21:34.331Z,40.25
2023-01-13T22:24:50.334Z,39.00
2023-01-13T22:27:52.131Z,43.10
2023-01-13T22:31:08.309Z,42.20
2023-01-13T22:34:12.186Z,42.72
2023-01-13T22:37:27.363Z,46.63
2023-01-13T22:40:29.861Z,44.87
2023-01-13T22:43:51.340Z,40.60
2023-01-13T22:46:59.347Z,43.63
2023-01-13T22:50:15.320Z,38.58
2023-01-13T22:53:18.661Z,37.28
2023-01-13T22:56:33.418Z,40.53
2023-01-13T22:59:42.367Z,39.65
2023-01-13T23:02:51.035Z,37.10
2023-01-13T23:06:03.384Z,41.95
2023-01-13T23:09:11.967Z,43.63
2023-01-13T23:12:20.365Z,37.60
2023-01-13T23:15:36.380Z,34.72
2023-01-13T23:18:38.729Z,39.33
2023-01-13T23:21:54.395Z,35.95
2023-01-13T23:24:56.210Z,39.97
2023-01-13T23:28:11.435Z,42.37
2023-01-13T23:31:16.481Z,38.17
2023-01-13T23:34:31.363Z,44.53
2023-01-13T23:37:39.380Z,39.30
2023-01-13T23:40:54.416Z,40.95
2023-01-13T23:44:02.712Z,40.50
2023-01-13T23:47:17.407Z,40.20
2023-01-13T23:50:26.339Z,42.88
2023-01-13T23:53:40.099Z,38.47
2023-01-13T23:56:49.413Z,48.05
2023-01-13T23:59:58.004Z,41.60
